Time;durP1;ratioP1;P1;durP2;ratioP2;P2;SDS_P1;SDS_P2;PMS_P1;PMS_P2;Temp;Humidity;BMP_temperature;BMP_pressure;BME280_temperature;BME280_humidity;BME280_pressure;Samples;Min_cycle;Max_cycle;Signal;HPM_P1;HPM_P2
2023/07/01 00:00:07;;;;;;;6.37;3.70;;;21.90;54.90;;;;;;5069223;28;20454;-83
2023/07/01 00:02:36;;;;;;;4.00;3.60;;;22.00;54.70;;;;;;5062358;28;20463;-84
2023/07/01 00:05:04;;;;;;;4.30;3.90;;;22.00;54.00;;;;;;5084404;28;20552;-83
2023/07/01 00:07:31;;;;;;;3.90;3.60;;;22.00;53.80;;;;;;5070046;28;20451;-84
2023/07/01 00:09:59;;;;;;;3.73;3.43;;;22.00;54.00;;;;;;5060030;28;20462;-84
2023/07/01 00:12:26;;;;;;;3.83;3.40;;;22.00;53.90;;;;;;5073063;28;20549;-85
2023/07/01 00:14:53;;;;;;;4.87;3.10;;;22.00;53.90;;;;;;5077009;28;20451;-84
2023/07/01 00:17:20;;;;;;;5.50;3.57;;;22.00;53.50;;;;;;5083866;28;21349;-83
2023/07/01 00:19:47;;;;;;;5.80;4.07;;;22.00;53.90;;;;;;5064645;28;21367;-84
2023/07/01 00:22:14;;;;;;;3.90;3.37;;;21.90;53.90;;;;;;5070425;28;20467;-84
2023/07/01 00:24:41;;;;;;;5.23;3.57;;;21.90;53.60;;;;;;5071630;28;20455;-83
2023/07/01 00:27:09;;;;;;;6.30;4.23;;;21.90;54.10;;;;;;5056380;28;20470;-84
2023/07/01 00:29:36;;;;;;;4.50;4.10;;;21.90;54.30;;;;;;5075248;28;20447;-84
2023/07/01 00:32:04;;;;;;;8.20;3.90;;;21.90;54.20;;;;;;5064809;28;20572;-84
2023/07/01 00:34:31;;;;;;;5.50;4.10;;;21.70;54.80;;;;;;5041890;28;20459;-84
2023/07/01 00:36:58;;;;;;;6.10;3.77;;;21.70;55.00;;;;;;5044739;28;20534;-84
2023/07/01 00:39:25;;;;;;;8.30;3.97;;;21.70;54.90;;;;;;5065540;28;20455;-84
2023/07/01 00:41:53;;;;;;;3.50;3.20;;;21.60;54.90;;;;;;5098249;28;20477;-84
2023/07/01 00:44:22;;;;;;;4.93;4.43;;;21.70;54.70;;;;;;5090577;28;20455;-84
2023/07/01 00:46:49;;;;;;;6.28;3.60;;;21.50;54.90;;;;;;5079712;28;20482;-84
2023/07/01 00:49:16;;;;;;;5.80;4.60;;;21.50;55.00;;;;;;5092314;28;20190;-84
2023/07/01 00:51:43;;;;;;;4.40;4.00;;;21.50;55.00;;;;;;5073803;28;20471;-84
2023/07/01 00:54:10;;;;;;;4.30;3.90;;;21.50;54.80;;;;;;5067439;28;20459;-84
2023/07/01 00:56:38;;;;;;;4.60;4.10;;;21.50;54.20;;;;;;5107565;27;20943;-83
2023/07/01 00:59:05;;;;;;;6.40;4.13;;;21.50;54.40;;;;;;5089068;28;20458;-84
2023/07/01 01:01:47;;;;;;;5.35;4.30;;;21.50;54.30;;;;;;5039971;28;20477;-84
2023/07/01 01:04:29;;;;;;;4.40;3.30;;;21.50;54.10;;;;;;5047463;28;20270;-84
2023/07/01 01:07:01;;;;;;;4.40;3.93;;;21.50;53.70;;;;;;5047594;28;20491;-84
2023/07/01 01:09:37;;;;;;;5.20;3.90;;;21.50;53.90;;;;;;5105657;27;20986;-84
2023/07/01 01:12:07;;;;;;;6.57;3.37;;;21.40;54.00;;;;;;5071416;27;20895;-84
2023/07/01 01:14:36;;;;;;;5.27;3.87;;;21.40;54.00;;;;;;5047256;28;20464;-84
2023/07/01 01:17:10;;;;;;;5.23;3.77;;;21.40;54.00;;;;;;5049707;28;20460;-84
2023/07/01 01:19:40;;;;;;;4.20;3.60;;;21.40;54.20;;;;;;5064907;28;20477;-83
2023/07/01 01:22:18;;;;;;;11.65;4.07;;;21.30;54.00;;;;;;5071667;28;20541;-83
2023/07/01 01:24:50;;;;;;;6.80;5.50;;;21.30;53.80;;;;;;5053863;28;20261;-83
2023/07/01 01:27:25;;;;;;;6.67;4.90;;;21.30;55.40;;;;;;5103930;27;21139;-84
2023/07/01 01:29:53;;;;;;;7.60;5.33;;;21.20;55.30;;;;;;5075111;27;20457;-84
2023/07/01 01:32:20;;;;;;;6.17;5.00;;;21.20;55.90;;;;;;5040899;28;20854;-84
2023/07/01 01:34:47;;;;;;;9.60;5.80;;;21.20;56.70;;;;;;5072632;28;20501;-84
2023/07/01 01:37:22;;;;;;;7.87;4.90;;;21.20;55.60;;;;;;5074343;28;20471;-84
2023/07/01 01:39:54;;;;;;;5.87;4.97;;;21.20;55.30;;;;;;5063683;28;20447;-84
2023/07/01 01:42:26;;;;;;;6.00;4.30;;;21.20;55.30;;;;;;5090067;28;20482;-84
2023/07/01 01:44:56;;;;;;;5.20;4.50;;;21.10;55.00;;;;;;5070285;28;20445;-83
2023/07/01 01:47:26;;;;;;;5.97;4.40;;;21.10;54.60;;;;;;5080014;28;20202;-83
2023/07/01 01:49:55;;;;;;;5.47;4.83;;;21.10;55.10;;;;;;5059165;28;20197;-84
2023/07/01 01:52:23;;;;;;;5.53;4.67;;;21.10;55.00;;;;;;5044089;28;20468;-84
2023/07/01 01:54:54;;;;;;;5.93;4.33;;;21.10;54.70;;;;;;5089586;28;20455;-84
2023/07/01 01:57:22;;;;;;;5.13;4.30;;;21.00;55.00;;;;;;5069975;28;20455;-85
2023/07/01 01:59:49;;;;;;;4.50;4.10;;;21.00;55.20;;;;;;5046572;28;20200;-84
2023/07/01 02:02:18;;;;;;;6.80;4.05;;;21.00;54.80;;;;;;5046071;28;20465;-84
2023/07/01 02:04:45;;;;;;;4.73;3.80;;;21.00;54.70;;;;;;5053186;28;20513;-84
2023/07/01 02:07:12;;;;;;;5.00;4.60;;;21.00;54.60;;;;;;5071068;28;20452;-84
2023/07/01 02:09:39;;;;;;;5.40;4.60;;;21.00;54.60;;;;;;5048120;28;21145;-83
2023/07/01 02:12:06;;;;;;;9.57;6.60;;;21.00;54.80;;;;;;5054028;28;20481;-84
2023/07/01 02:14:33;;;;;;;28.67;8.03;;;20.60;56.20;;;;;;5063220;28;20446;-84
2023/07/01 02:17:01;;;;;;;36.33;8.20;;;20.10;58.30;;;;;;5061669;28;20447;-84
2023/07/01 02:19:29;;;;;;;26.67;6.50;;;19.20;61.10;;;;;;5061550;28;20479;-84
2023/07/01 02:21:56;;;;;;;31.83;6.57;;;18.80;63.10;;;;;;5071519;28;20480;-84
2023/07/01 02:24:23;;;;;;;70.97;8.30;;;18.20;64.60;;;;;;5056338;28;21253;-85
2023/07/01 02:26:50;;;;;;;8.00;6.50;;;17.90;66.10;;;;;;5070886;28;20470;-84
2023/07/01 02:29:18;;;;;;;7.17;5.80;;;18.20;65.90;;;;;;5069428;28;20509;-84
2023/07/01 02:31:45;;;;;;;5.83;5.23;;;18.80;63.00;;;;;;5071408;27;20476;-84
2023/07/01 02:34:12;;;;;;;7.10;5.10;;;19.20;61.00;;;;;;5081990;28;20455;-85
2023/07/01 02:36:43;;;;;;;8.97;5.87;;;19.60;60.50;;;;;;5060453;28;20439;-84
2023/07/01 02:39:10;;;;;;;8.20;5.53;;;19.50;59.70;;;;;;5058330;28;20432;-84
2023/07/01 02:41:37;;;;;;;7.40;6.00;;;19.40;59.50;;;;;;5071716;28;20447;-84
2023/07/01 02:44:04;;;;;;;6.80;5.30;;;19.50;59.10;;;;;;5079710;28;20467;-84
2023/07/01 02:46:31;;;;;;;7.70;5.67;;;19.40;59.40;;;;;;5062655;28;20445;-83
2023/07/01 02:48:58;;;;;;;7.63;5.73;;;19.40;58.60;;;;;;5053419;28;20442;-84
2023/07/01 02:51:25;;;;;;;8.20;6.43;;;19.10;59.50;;;;;;5071304;28;20446;-83
2023/07/01 02:53:53;;;;;;;8.17;6.00;;;19.20;59.60;;;;;;5069538;28;20653;-84
2023/07/01 02:56:21;;;;;;;9.53;6.37;;;19.40;59.40;;;;;;5086178;28;20482;-85
2023/07/01 02:58:48;;;;;;;8.67;6.67;;;19.70;59.10;;;;;;5058871;28;20483;-85
2023/07/01 03:01:15;;;;;;;70.73;9.00;;;19.90;58.90;;;;;;5065030;28;20550;-84
2023/07/01 03:03:42;;;;;;;55.67;10.63;;;19.80;59.50;;;;;;5044954;28;20469;-84
2023/07/01 03:06:10;;;;;;;32.00;9.67;;;19.50;60.00;;;;;;5042254;28;20810;-84
2023/07/01 03:08:37;;;;;;;17.53;8.53;;;18.70;62.30;;;;;;5063516;28;20996;-83
2023/07/01 03:11:06;;;;;;;17.30;9.33;;;18.90;61.80;;;;;;5056053;28;20449;-83
2023/07/01 03:13:37;;;;;;;11.83;9.13;;;19.00;61.60;;;;;;5046321;28;20467;-85
2023/07/01 03:16:06;;;;;;;11.13;8.43;;;18.90;61.40;;;;;;5070534;28;20447;-85
2023/07/01 03:18:33;;;;;;;28.87;8.67;;;19.10;61.30;;;;;;5064194;28;20467;-84
2023/07/01 03:21:00;;;;;;;60.97;10.87;;;18.80;62.60;;;;;;5062645;28;20941;-85
2023/07/01 03:23:27;;;;;;;13.00;8.43;;;18.50;64.30;;;;;;5071881;28;21039;-84
2023/07/01 03:25:54;;;;;;;34.38;10.23;;;18.70;64.00;;;;;;5038835;28;20451;-84
2023/07/01 03:28:23;;;;;;;14.13;8.03;;;19.10;62.60;;;;;;5079115;28;20202;-84
2023/07/01 03:30:51;;;;;;;80.23;10.07;;;19.40;61.60;;;;;;5045699;28;20464;-85
2023/07/01 03:33:18;;;;;;;124.40;11.90;;;19.30;61.40;;;;;;5074082;28;20493;-84
2023/07/01 03:35:45;;;;;;;271.50;16.03;;;19.00;62.70;;;;;;5055369;28;20979;-84
2023/07/01 03:38:13;;;;;;;39.53;10.40;;;18.90;63.00;;;;;;5082504;28;20439;-85
2023/07/01 03:40:41;;;;;;;48.77;9.73;;;18.80;63.70;;;;;;5075139;28;20467;-84
2023/07/01 03:43:08;;;;;;;14.13;9.00;;;18.70;64.60;;;;;;5100849;28;20471;-84
2023/07/01 03:45:36;;;;;;;12.30;8.33;;;18.80;64.40;;;;;;5090480;27;20446;-84
2023/07/01 03:48:03;;;;;;;13.50;9.30;;;19.20;63.10;;;;;;5092877;28;20466;-85
2023/07/01 03:50:30;;;;;;;12.57;8.93;;;19.50;62.30;;;;;;5073048;28;20516;-85
2023/07/01 03:52:57;;;;;;;14.53;9.10;;;19.70;61.50;;;;;;5051174;28;20482;-83
2023/07/01 03:55:25;;;;;;;47.90;10.90;;;19.90;60.90;;;;;;5086005;28;20458;-84
2023/07/01 03:57:52;;;;;;;12.33;8.73;;;20.00;60.40;;;;;;5076666;28;20527;-84
2023/07/01 04:00:19;;;;;;;15.63;7.60;;;20.10;60.20;;;;;;5044387;28;20955;-84
2023/07/01 04:02:49;;;;;;;121.77;12.20;;;20.20;60.00;;;;;;5068395;28;20510;-84
2023/07/01 04:05:17;;;;;;;12.30;8.50;;;20.20;59.80;;;;;;5067659;28;20479;-84
2023/07/01 04:07:45;;;;;;;26.80;8.30;;;20.10;60.00;;;;;;5078321;27;20819;-84
2023/07/01 04:10:13;;;;;;;45.72;9.95;;;19.90;60.70;;;;;;5093757;27;20892;-84
2023/07/01 04:12:41;;;;;;;41.17;9.20;;;19.80;61.00;;;;;;5093902;28;20217;-84
2023/07/01 04:15:10;;;;;;;14.07;8.32;;;19.80;61.10;;;;;;5074211;28;20442;-84
2023/07/01 04:17:40;;;;;;;48.83;9.83;;;19.90;61.00;;;;;;5091022;28;20634;-84
2023/07/01 04:20:10;;;;;;;49.45;9.73;;;20.00;60.60;;;;;;5082050;28;20561;-83
2023/07/01 04:22:37;;;;;;;32.67;8.97;;;19.90;60.70;;;;;;5074324;28;20229;-84
2023/07/01 04:25:04;;;;;;;10.80;7.93;;;19.90;60.70;;;;;;5060772;28;20486;-84
2023/07/01 04:27:32;;;;;;;211.00;18.83;;;20.00;60.50;;;;;;5074109;28;20448;-84
2023/07/01 04:29:59;;;;;;;147.53;15.53;;;19.60;61.60;;;;;;5058832;28;21191;-84
2023/07/01 04:32:28;;;;;;;73.00;11.57;;;18.70;65.10;;;;;;5060829;28;20466;-83
2023/07/01 04:34:55;;;;;;;45.70;10.03;;;19.00;64.70;;;;;;5073208;28;21062;-84
2023/07/01 04:37:24;;;;;;;97.80;12.27;;;19.00;64.70;;;;;;5077402;28;20475;-84
2023/07/01 04:39:51;;;;;;;14.03;9.63;;;19.10;64.10;;;;;;5051450;28;21101;-85
2023/07/01 04:42:19;;;;;;;69.80;10.67;;;19.40;63.70;;;;;;5079205;28;20467;-84
2023/07/01 04:44:53;;;;;;;14.50;8.80;;;19.30;63.50;;;;;;5075264;27;20555;-83
2023/07/01 04:47:20;;;;;;;12.70;8.13;;;19.50;63.40;;;;;;5067698;28;20533;-84
2023/07/01 04:49:47;;;;;;;15.73;8.60;;;19.80;62.70;;;;;;5071540;28;20439;-85
2023/07/01 04:52:15;;;;;;;14.57;8.50;;;19.90;61.80;;;;;;5062507;28;20464;-84
2023/07/01 04:54:43;;;;;;;12.50;8.27;;;20.10;61.60;;;;;;5109222;27;20522;-86
2023/07/01 04:57:10;;;;;;;14.80;10.63;;;20.20;61.40;;;;;;5050893;28;20455;-84
2023/07/01 04:59:37;;;;;;;17.37;9.77;;;20.20;60.60;;;;;;5047844;28;20973;-83
2023/07/01 05:02:04;;;;;;;45.75;11.77;;;20.30;60.60;;;;;;5063813;28;21462;-85
2023/07/01 05:04:31;;;;;;;16.77;10.73;;;20.10;60.60;;;;;;5106460;27;20464;-84
2023/07/01 05:06:58;;;;;;;12.10;9.40;;;20.10;61.00;;;;;;5050700;27;20447;-84
2023/07/01 05:09:25;;;;;;;20.30;9.83;;;20.20;60.80;;;;;;5056187;28;20509;-85
2023/07/01 05:11:54;;;;;;;23.17;11.07;;;20.30;60.50;;;;;;5041966;28;20455;-83
2023/07/01 05:14:20;;;;;;;18.37;10.60;;;20.20;60.30;;;;;;5067240;28;20518;-84
2023/07/01 05:16:47;;;;;;;18.90;10.37;;;20.30;60.40;;;;;;5073532;28;20490;-85
2023/07/01 05:19:14;;;;;;;16.50;9.80;;;20.40;60.20;;;;;;5092436;28;20526;-84
2023/07/01 05:21:49;;;;;;;22.70;10.63;;;20.50;60.10;;;;;;5090625;28;20444;-85
2023/07/01 05:24:16;;;;;;;39.33;11.60;;;20.50;59.80;;;;;;5073457;28;20591;-84
2023/07/01 05:26:45;;;;;;;17.60;9.83;;;20.50;59.80;;;;;;5073006;28;20942;-84
2023/07/01 05:29:14;;;;;;;14.43;9.13;;;20.60;59.90;;;;;;5073270;28;20519;-83
2023/07/01 05:31:41;;;;;;;14.33;9.77;;;20.70;59.90;;;;;;5058103;28;20221;-84
2023/07/01 05:34:08;;;;;;;15.13;8.93;;;20.70;59.60;;;;;;5087144;27;20447;-84
2023/07/01 05:36:36;;;;;;;17.80;9.35;;;20.70;59.60;;;;;;5065482;28;20516;-84
2023/07/01 05:39:03;;;;;;;17.70;9.77;;;20.70;59.80;;;;;;5090426;28;20574;-85
2023/07/01 05:41:30;;;;;;;16.50;10.10;;;20.70;59.70;;;;;;5048771;28;20301;-83
2023/07/01 05:43:57;;;;;;;17.60;10.70;;;20.70;59.60;;;;;;5096343;28;20996;-83
2023/07/01 05:46:26;;;;;;;14.70;9.53;;;20.60;60.00;;;;;;5074629;28;20446;-84
2023/07/01 05:48:53;;;;;;;18.77;10.20;;;20.60;60.50;;;;;;5081520;28;20451;-84
2023/07/01 05:51:20;;;;;;;16.73;11.17;;;20.70;60.00;;;;;;5074622;28;20968;-86
2023/07/01 05:53:48;;;;;;;18.67;10.03;;;20.70;59.90;;;;;;5082102;27;20557;-83
2023/07/01 05:56:16;;;;;;;16.50;10.03;;;20.80;59.90;;;;;;5074175;28;20812;-84
2023/07/01 05:58:43;;;;;;;19.77;10.02;;;20.90;59.90;;;;;;5063161;28;20822;-84
2023/07/01 06:01:10;;;;;;;18.17;11.10;;;21.00;59.50;;;;;;5039937;28;20769;-83
2023/07/01 06:03:39;;;;;;;15.27;10.20;;;21.00;59.60;;;;;;5071231;28;20466;-83
2023/07/01 06:06:06;;;;;;;15.63;10.10;;;21.00;59.50;;;;;;5089108;27;20443;-83
2023/07/01 06:08:33;;;;;;;17.13;10.27;;;20.90;59.60;;;;;;5061324;28;20454;-83
2023/07/01 06:11:00;;;;;;;15.13;10.57;;;20.90;59.80;;;;;;5067431;27;20513;-83
2023/07/01 06:13:27;;;;;;;21.80;11.07;;;20.80;59.80;;;;;;5054877;28;21041;-84
2023/07/01 06:15:54;;;;;;;17.47;10.30;;;20.80;60.00;;;;;;5068206;28;20448;-83
2023/07/01 06:18:21;;;;;;;14.70;10.70;;;20.70;60.00;;;;;;5040910;28;20460;-83
2023/07/01 06:20:49;;;;;;;15.93;11.57;;;20.60;60.40;;;;;;5070389;28;20463;-84
2023/07/01 06:23:17;;;;;;;16.90;10.37;;;20.70;60.40;;;;;;5088632;28;20854;-83
2023/07/01 06:25:44;;;;;;;16.73;12.07;;;20.80;60.40;;;;;;5052871;28;20555;-83
2023/07/01 06:28:11;;;;;;;17.67;10.90;;;21.00;60.00;;;;;;5045939;28;20848;-83
2023/07/01 06:30:37;;;;;;;12.00;9.45;;;21.10;59.70;;;;;;5069646;28;20450;-83
2023/07/01 06:33:06;;;;;;;17.20;10.33;;;21.20;59.40;;;;;;5088735;27;21029;-83
2023/07/01 06:35:34;;;;;;;12.50;8.47;;;21.20;59.70;;;;;;5071456;28;20440;-83
2023/07/01 06:38:02;;;;;;;16.20;10.10;;;21.30;59.70;;;;;;5053851;28;20467;-84
2023/07/01 06:40:29;;;;;;;13.70;9.30;;;21.40;59.50;;;;;;5073357;28;20474;-84
2023/07/01 06:42:56;;;;;;;10.97;9.10;;;21.50;59.40;;;;;;5070035;28;20468;-83
2023/07/01 06:45:23;;;;;;;11.80;8.70;;;21.60;59.20;;;;;;5070110;28;20506;-83
2023/07/01 06:47:50;;;;;;;9.80;8.07;;;21.70;59.20;;;;;;5071086;28;20443;-83
2023/07/01 06:50:20;;;;;;;11.23;9.05;;;21.80;58.90;;;;;;5072479;28;21378;-82
2023/07/01 06:52:47;;;;;;;13.23;7.37;;;22.10;58.40;;;;;;5088545;28;20217;-82
2023/07/01 06:55:15;;;;;;;12.33;7.87;;;22.20;58.20;;;;;;5056831;28;20475;-83
2023/07/01 06:57:43;;;;;;;11.77;8.00;;;22.30;58.00;;;;;;5062232;28;20951;-82
2023/07/01 07:00:13;;;;;;;9.07;7.27;;;22.60;57.50;;;;;;5063655;28;20451;-83
2023/07/01 07:02:40;;;;;;;8.23;6.60;;;22.70;57.20;;;;;;5078219;28;20501;-83
2023/07/01 07:05:09;;;;;;;9.70;6.27;;;22.70;57.40;;;;;;5053853;28;21038;-83
2023/07/01 07:07:36;;;;;;;9.53;6.53;;;22.70;57.20;;;;;;5059662;28;20881;-83
2023/07/01 07:10:03;;;;;;;6.37;5.77;;;22.80;57.30;;;;;;5062967;28;20865;-82
2023/07/01 07:12:32;;;;;;;6.63;5.90;;;23.10;56.60;;;;;;5071091;28;20471;-82
2023/07/01 07:14:59;;;;;;;8.70;5.90;;;23.30;56.10;;;;;;5068888;28;20513;-84
2023/07/01 07:17:25;;;;;;;7.80;5.67;;;23.30;56.70;;;;;;5089339;28;20435;-83
2023/07/01 07:19:52;;;;;;;7.00;5.30;;;23.50;55.20;;;;;;5060934;28;20452;-82
2023/07/01 07:22:19;;;;;;;6.37;4.80;;;23.50;55.60;;;;;;5053811;28;20463;-84
2023/07/01 07:24:46;;;;;;;4.57;4.00;;;23.60;54.70;;;;;;5070746;28;20494;-82
2023/07/01 07:27:13;;;;;;;5.20;3.93;;;23.60;53.90;;;;;;5061648;28;20267;-84
2023/07/01 07:29:41;;;;;;;4.00;3.63;;;23.80;53.40;;;;;;5070054;28;20454;-83
2023/07/01 07:32:09;;;;;;;4.43;4.03;;;23.90;52.70;;;;;;5101194;27;20225;-83
2023/07/01 07:34:37;;;;;;;2.60;2.40;;;24.10;51.20;;;;;;5055374;28;20448;-82
2023/07/01 07:37:05;;;;;;;3.87;3.47;;;24.10;49.20;;;;;;5085670;28;20443;-83
2023/07/01 07:39:32;;;;;;;2.50;2.30;;;24.10;48.80;;;;;;5054933;28;20443;-83
2023/07/01 07:41:59;;;;;;;3.70;2.43;;;24.20;47.80;;;;;;5069887;28;20474;-83
2023/07/01 07:44:26;;;;;;;3.77;3.00;;;24.40;48.00;;;;;;5061959;28;20479;-84
2023/07/01 07:46:55;;;;;;;3.40;3.10;;;24.70;48.80;;;;;;5060410;28;20487;-84
2023/07/01 07:49:22;;;;;;;5.07;2.43;;;24.80;47.80;;;;;;5077959;28;21016;-84
2023/07/01 07:51:49;;;;;;;4.20;2.27;;;24.90;45.30;;;;;;5068982;28;20467;-83
2023/07/01 07:54:16;;;;;;;2.57;2.33;;;24.90;45.20;;;;;;5072674;28;20462;-85
2023/07/01 07:56:43;;;;;;;4.15;2.50;;;25.20;45.90;;;;;;5061703;28;20533;-84
2023/07/01 07:59:10;;;;;;;4.57;2.40;;;25.40;45.00;;;;;;5072314;28;20232;-84
2023/07/01 08:01:37;;;;;;;7.90;2.07;;;25.50;43.50;;;;;;5091733;28;20439;-85
2023/07/01 08:04:05;;;;;;;4.55;2.55;;;25.80;43.00;;;;;;5056795;28;20952;-85
2023/07/01 08:06:32;;;;;;;4.20;2.27;;;25.70;40.90;;;;;;5072389;28;20213;-84
2023/07/01 08:08:59;;;;;;;2.60;2.30;;;25.70;41.10;;;;;;5080369;28;20458;-85
2023/07/01 08:11:26;;;;;;;3.50;2.10;;;25.70;40.10;;;;;;5087933;28;20454;-85
2023/07/01 08:13:53;;;;;;;3.10;2.10;;;25.80;41.30;;;;;;5062487;28;20446;-85
2023/07/01 08:16:20;;;;;;;3.43;2.10;;;26.00;41.20;;;;;;5076374;28;20444;-84
2023/07/01 08:18:47;;;;;;;2.90;1.90;;;26.20;40.90;;;;;;5056848;28;20458;-85
2023/07/01 08:21:16;;;;;;;2.75;2.00;;;26.20;39.90;;;;;;5071290;28;20447;-84
2023/07/01 08:23:43;;;;;;;4.60;2.42;;;26.20;40.10;;;;;;5071535;27;20272;-84
2023/07/01 08:26:10;;;;;;;2.00;1.80;;;26.10;38.90;;;;;;5087490;28;20267;-84
2023/07/01 08:28:37;;;;;;;2.03;1.83;;;26.10;39.70;;;;;;5066860;28;20466;-84
2023/07/01 08:31:05;;;;;;;3.90;1.93;;;26.10;38.90;;;;;;5073232;28;20463;-84
2023/07/01 08:33:32;;;;;;;3.47;2.10;;;26.00;39.40;;;;;;5070834;28;20463;-85
2023/07/01 08:35:59;;;;;;;2.13;1.92;;;26.10;38.60;;;;;;5091444;27;20875;-85
2023/07/01 08:38:28;;;;;;;5.30;2.07;;;26.00;39.00;;;;;;5067502;28;20197;-85
2023/07/01 08:41:00;;;;;;;2.53;1.70;;;26.00;39.30;;;;;;5056967;28;20571;-84
2023/07/01 08:43:27;;;;;;;3.17;2.27;;;25.80;39.20;;;;;;5068496;28;20478;-84
2023/07/01 08:46:02;;;;;;;3.30;2.30;;;25.90;39.40;;;;;;5067460;28;20481;-84
2023/07/01 08:48:32;;;;;;;3.60;1.97;;;25.90;39.50;;;;;;5075833;28;20816;-85
2023/07/01 08:51:05;;;;;;;2.67;1.97;;;26.10;39.50;;;;;;5083071;28;20483;-84
2023/07/01 08:53:34;;;;;;;4.17;2.00;;;26.20;39.10;;;;;;5074704;28;20483;-84
2023/07/01 08:56:01;;;;;;;2.08;1.88;;;26.50;38.10;;;;;;5065435;28;20808;-85
2023/07/01 08:58:29;;;;;;;2.40;2.20;;;26.60;37.60;;;;;;5083934;28;20217;-85
2023/07/01 09:00:57;;;;;;;7.47;3.35;;;26.80;39.20;;;;;;5072617;28;20459;-83
2023/07/01 09:03:23;;;;;;;4.45;2.05;;;26.90;38.80;;;;;;5091661;27;20241;-85
2023/07/01 09:05:50;;;;;;;2.60;2.00;;;27.00;37.60;;;;;;5057365;28;20262;-84
2023/07/01 09:08:17;;;;;;;2.20;1.77;;;26.90;37.60;;;;;;5057508;28;20466;-83
2023/07/01 09:10:46;;;;;;;3.13;1.97;;;26.90;36.00;;;;;;5062338;28;20451;-83
2023/07/01 09:13:13;;;;;;;2.37;1.90;;;27.00;38.10;;;;;;5063961;28;20516;-85
2023/07/01 09:15:43;;;;;;;3.30;1.90;;;27.00;37.00;;;;;;5092840;28;20467;-85
2023/07/01 09:18:23;;;;;;;1.77;1.67;;;27.00;35.90;;;;;;5092921;27;20909;-85
2023/07/01 09:20:50;;;;;;;1.80;1.70;;;27.20;36.60;;;;;;5072871;28;20484;-84
2023/07/01 09:23:28;;;;;;;2.03;1.83;;;27.50;36.70;;;;;;5074425;28;20569;-85
2023/07/01 09:26:13;;;;;;;2.63;1.97;;;27.70;35.20;;;;;;5071157;28;20312;-83
2023/07/01 09:28:40;;;;;;;1.85;1.55;;;27.70;34.20;;;;;;5073432;28;20451;-84
2023/07/01 09:31:10;;;;;;;3.47;2.17;;;27.30;35.30;;;;;;5081651;28;20290;-84
2023/07/01 09:33:37;;;;;;;2.90;1.70;;;27.50;35.50;;;;;;5082732;28;20592;-84
2023/07/01 09:36:07;;;;;;;2.23;1.67;;;27.70;34.00;;;;;;5055149;27;20982;-85
2023/07/01 09:38:35;;;;;;;4.10;1.80;;;27.70;33.60;;;;;;5076502;28;20454;-84
2023/07/01 09:41:18;;;;;;;3.33;1.52;;;27.60;33.20;;;;;;5076774;28;20451;-83
2023/07/01 09:43:45;;;;;;;2.57;1.80;;;27.50;33.00;;;;;;5044623;28;20218;-84
2023/07/01 09:46:12;;;;;;;2.27;1.90;;;27.30;32.50;;;;;;5054605;28;20468;-85
2023/07/01 09:48:39;;;;;;;4.00;2.30;;;27.00;33.10;;;;;;5081391;28;20449;-85
2023/07/01 09:51:07;;;;;;;3.37;1.87;;;26.90;34.10;;;;;;5054549;28;20452;-85
2023/07/01 09:53:36;;;;;;;4.40;1.87;;;26.80;32.70;;;;;;5091198;28;20463;-85
2023/07/01 09:56:04;;;;;;;3.20;1.70;;;27.00;33.30;;;;;;5062631;28;20447;-84
2023/07/01 09:58:33;;;;;;;4.70;2.30;;;27.30;33.60;;;;;;5054896;28;20936;-85
2023/07/01 10:01:01;;;;;;;4.03;1.77;;;27.30;34.00;;;;;;5087848;27;20446;-85
2023/07/01 10:03:28;;;;;;;2.30;2.10;;;27.40;33.30;;;;;;5072859;28;20983;-86
2023/07/01 10:05:55;;;;;;;6.40;1.93;;;27.50;34.00;;;;;;5042491;27;20466;-84
2023/07/01 10:08:23;;;;;;;8.47;2.20;;;27.80;34.10;;;;;;5052389;28;20435;-85
2023/07/01 10:11:04;;;;;;;3.57;2.07;;;27.80;33.80;;;;;;5062097;28;20474;-85
2023/07/01 10:13:38;;;;;;;2.77;2.47;;;27.80;33.50;;;;;;5074764;28;20482;-86
2023/07/01 10:16:07;;;;;;;4.90;1.80;;;27.40;34.50;;;;;;5082018;28;20454;-87
2023/07/01 10:18:34;;;;;;;5.27;2.43;;;27.40;35.30;;;;;;5048709;28;20455;-85
2023/07/01 10:21:29;;;;;;;5.03;1.87;;;27.30;35.00;;;;;;5042251;27;20452;-84
2023/07/01 10:23:58;;;;;;;5.00;2.00;;;27.40;35.30;;;;;;5082175;28;20454;-84
2023/07/01 10:26:35;;;;;;;2.40;2.20;;;27.60;36.00;;;;;;5083545;28;20478;-86
2023/07/01 10:29:36;;;;;;;3.63;1.93;;;27.40;34.70;;;;;;5070074;28;20516;-84
2023/07/01 10:32:38;;;;;;;2.90;2.27;;;27.50;36.50;;;;;;5033276;28;20479;-85
2023/07/01 10:35:13;;;;;;;4.70;2.50;;;27.60;35.40;;;;;;4989618;28;20478;-84
2023/07/01 10:37:40;;;;;;;7.43;2.67;;;27.60;36.60;;;;;;4973651;28;20454;-84
2023/07/01 10:40:43;;;;;;;2.50;1.90;;;27.40;36.60;;;;;;5035668;28;20444;-85
2023/07/01 10:43:26;;;;;;;3.97;2.00;;;27.00;36.80;;;;;;5066209;28;20470;-84
2023/07/01 10:46:11;;;;;;;3.60;2.30;;;26.90;37.00;;;;;;5081666;28;20503;-85
2023/07/01 10:48:41;;;;;;;4.43;2.20;;;27.00;37.90;;;;;;5059922;28;20442;-84
2023/07/01 10:51:08;;;;;;;3.00;2.47;;;27.10;37.00;;;;;;5042119;27;20447;-83
2023/07/01 10:53:59;;;;;;;2.73;2.13;;;27.00;37.00;;;;;;5059456;28;20463;-84
2023/07/01 10:56:28;;;;;;;2.47;1.77;;;27.10;38.30;;;;;;5074829;28;20427;-84
2023/07/01 10:59:21;;;;;;;3.77;1.97;;;26.90;37.40;;;;;;5040021;28;20451;-85
2023/07/01 11:01:49;;;;;;;2.87;1.90;;;26.50;37.60;;;;;;5093844;28;21152;-86
2023/07/01 11:04:18;;;;;;;5.13;2.03;;;26.40;38.20;;;;;;5064285;28;20443;-85
2023/07/01 11:06:47;;;;;;;3.83;2.38;;;26.60;38.80;;;;;;5062505;28;20884;-85
2023/07/01 11:09:14;;;;;;;3.60;2.10;;;26.70;40.10;;;;;;5089163;28;20193;-85
2023/07/01 11:11:42;;;;;;;3.20;2.13;;;26.80;38.70;;;;;;5054503;28;20444;-84
2023/07/01 11:14:10;;;;;;;3.10;1.90;;;26.70;37.70;;;;;;5046713;28;20968;-85
2023/07/01 11:16:39;;;;;;;2.57;1.70;;;26.80;39.10;;;;;;5091137;28;20461;-85
2023/07/01 11:19:07;;;;;;;5.30;1.80;;;27.00;38.40;;;;;;5087144;28;20443;-84
2023/07/01 11:21:36;;;;;;;4.70;2.13;;;27.00;38.20;;;;;;5057531;28;20213;-85
2023/07/01 11:24:05;;;;;;;4.03;2.10;;;26.90;37.70;;;;;;5037243;28;20471;-84
2023/07/01 11:26:33;;;;;;;2.60;1.80;;;26.80;37.90;;;;;;5060420;28;20471;-85
2023/07/01 11:29:01;;;;;;;2.65;2.33;;;26.90;38.40;;;;;;5070971;28;20479;-85
2023/07/01 11:31:31;;;;;;;3.53;2.50;;;26.70;39.00;;;;;;5089051;28;20211;-84
2023/07/01 11:33:59;;;;;;;4.17;2.40;;;26.70;39.30;;;;;;5062671;28;20464;-85
2023/07/01 11:36:37;;;;;;;2.30;2.10;;;26.50;38.70;;;;;;5057020;28;20431;-84
2023/07/01 11:39:06;;;;;;;3.65;2.30;;;26.50;38.90;;;;;;5062172;28;20466;-84
2023/07/01 11:41:33;;;;;;;2.20;2.00;;;26.30;39.70;;;;;;5080955;28;20246;-86
2023/07/01 11:44:00;;;;;;;3.93;2.53;;;26.30;39.40;;;;;;5059458;28;20440;-86
2023/07/01 11:46:32;;;;;;;3.60;2.50;;;26.20;39.50;;;;;;5049509;28;20466;-84
2023/07/01 11:49:09;;;;;;;2.20;2.00;;;26.20;39.90;;;;;;5075025;28;20260;-86
2023/07/01 11:51:38;;;;;;;3.13;2.30;;;26.40;39.70;;;;;;5077551;28;20447;-86
2023/07/01 11:54:05;;;;;;;6.05;3.03;;;26.50;39.80;;;;;;5071037;28;20451;-85
2023/07/01 11:56:32;;;;;;;4.70;2.50;;;26.40;39.90;;;;;;5048033;28;20185;-85
2023/07/01 11:58:59;;;;;;;5.00;2.55;;;26.40;40.00;;;;;;5070257;28;20448;-84
2023/07/01 12:01:28;;;;;;;4.13;2.22;;;26.60;39.80;;;;;;5050186;28;20197;-84
2023/07/01 12:03:55;;;;;;;2.50;2.30;;;26.70;40.00;;;;;;5075757;28;20200;-84
2023/07/01 12:06:23;;;;;;;3.45;2.15;;;26.80;40.30;;;;;;5075870;28;20469;-84
2023/07/01 12:08:53;;;;;;;3.90;2.07;;;26.70;40.00;;;;;;5060103;28;20193;-84
2023/07/01 12:11:20;;;;;;;3.67;2.30;;;26.80;40.20;;;;;;5107878;27;20444;-84
2023/07/01 12:13:47;;;;;;;14.77;2.27;;;27.00;40.60;;;;;;5076682;28;20503;-85
2023/07/01 12:16:14;;;;;;;3.07;2.17;;;27.10;40.10;;;;;;5105092;27;20861;-85
2023/07/01 12:18:41;;;;;;;3.53;2.33;;;27.10;40.00;;;;;;5094229;28;20477;-84
2023/07/01 12:21:08;;;;;;;3.30;2.10;;;27.20;38.90;;;;;;5082284;28;20509;-86
2023/07/01 12:23:42;;;;;;;3.93;2.00;;;27.10;39.90;;;;;;5069856;28;20523;-84
2023/07/01 12:26:11;;;;;;;5.30;2.00;;;26.60;40.30;;;;;;5054842;28;20470;-84
2023/07/01 12:28:39;;;;;;;3.00;2.40;;;26.10;40.80;;;;;;5049214;28;20464;-85
2023/07/01 12:31:06;;;;;;;5.67;3.17;;;26.20;41.00;;;;;;5065589;28;20218;-85
2023/07/01 12:33:34;;;;;;;4.80;2.00;;;26.30;41.30;;;;;;5062560;28;20832;-84
2023/07/01 12:36:01;;;;;;;2.63;2.23;;;26.40;41.10;;;;;;5067476;28;20455;-85
2023/07/01 12:38:29;;;;;;;2.27;1.93;;;26.30;40.60;;;;;;5060089;28;20483;-85
2023/07/01 12:40:57;;;;;;;2.10;1.90;;;26.50;41.90;;;;;;5060257;28;20508;-86
2023/07/01 12:43:27;;;;;;;2.43;2.23;;;26.60;41.40;;;;;;5059468;28;20976;-85
2023/07/01 12:45:57;;;;;;;2.93;1.70;;;26.50;41.70;;;;;;5049384;28;20444;-85
2023/07/01 12:48:24;;;;;;;2.37;1.63;;;26.50;41.70;;;;;;5060309;28;20448;-85
2023/07/01 12:50:54;;;;;;;4.13;2.13;;;26.50;41.20;;;;;;5075103;28;20443;-86